This is the latest recevied weather packets stored in our database for station/object AG1T-20. If no packets are shown the sender has not sent any weather packets the latest 10 day(s).
| Time | Temp. | Humidity | Pressure | Rain* | Wind** | Luminosity | Snow |
|---|---|---|---|---|---|---|---|
| 1788074405 | 13.89° C | 91% | 1020.3 hPa | 4.57 mm | - | 0 W/m² | - |
| 1788073818 | 13.89° C | 91% | 1020.3 hPa | 1.27 mm | - | 0 W/m² | - |
| 1788073205 | 15.56° C | 84% | 1020.3 hPa | 0 mm | - | 0 W/m² | - |
| 1788072605 | 16.11° C | 81% | 1019 hPa | 0 mm | - | 0 W/m² | - |
| 1788072005 | 16.11° C | 79% | 1019 hPa | 0 mm | - | 0 W/m² | - |
| 1788071404 | 16.11° C | 79% | 1019 hPa | 0 mm | - | 0 W/m² | - |
| 1788070805 | 15.56° C | 78% | 1019 hPa | 0 mm | - | 0 W/m² | - |
| 1788070205 | 15.56° C | 76% | 1019 hPa | 0 mm | - | 0 W/m² | - |
| 1788069605 | 15.56° C | 75% | 1019 hPa | 0 mm | - | 0 W/m² | - |
| 1788069005 | 15.56° C | 77% | 1018.8 hPa | 0 mm | - | 0 W/m² | - |
| 1788068405 | 15.56° C | 79% | 1018.8 hPa | 0 mm | - | 0 W/m² | - |
| 1788067804 | 15.56° C | 76% | 1018.8 hPa | 0 mm | - | 0 W/m² | - |
| 1788067205 | 15.56° C | 78% | 1018.8 hPa | 0 mm | - | 0 W/m² | - |
| 1788066605 | 16.11° C | 76% | 1018.8 hPa | 0 mm | - | 0 W/m² | - |
| 1788066005 | 16.11° C | 77% | 1018.8 hPa | 0 mm | - | 0 W/m² | - |
| 1788065405 | 16.11° C | 81% | 1017.9 hPa | 0 mm | - | 0 W/m² | - |
| 1788064805 | 16.11° C | 80% | 1017.9 hPa | 0 mm | - | 0 W/m² | - |
| 1788064218 | 16.11° C | 79% | 1017.9 hPa | 0 mm | - | 0 W/m² | - |
| 1788063604 | 16.11° C | 79% | 1017.9 hPa | 0 mm | - | 0 W/m² | - |
| 1788063005 | 16.11° C | 79% | 1017.9 hPa | 0 mm | - | 0 W/m² | - |
| 1788062405 | 16.67° C | 78% | 1017.9 hPa | 0 mm | - | 0 W/m² | - |
| 1788061805 | 16.67° C | 75% | 1017.2 hPa | 0 mm | - | 0 W/m² | - |
| 1788061205 | 16.11° C | 76% | 1017.2 hPa | 0 mm | - | 0 W/m² | - |
| 1788060606 | 16.67° C | 74% | 1017.2 hPa | 0 mm | - | 0 W/m² | - |
| 1788060005 | 17.22° C | 71% | 1017.2 hPa | 0 mm | - | 0 W/m² | - |
* Rain latest hour (hover to see other rain measurements)
** Current wind speed in m/s (hover to see current wind gust speed)